Time;durP1;ratioP1;P1;durP2;ratioP2;P2;SDS_P1;SDS_P2;PMS_P1;PMS_P2;Temp;Humidity;BMP_temperature;BMP_pressure;BME280_temperature;BME280_humidity;BME280_pressure;Samples;Min_cycle;Max_cycle;Signal;HPM_P1;HPM_P2
2021/04/15 00:02:09;;;;;;;6.80;1.80;;;6.20;99.90;;;;;;5032767;28;20551;-53
2021/04/15 00:04:35;;;;;;;3.47;1.50;;;6.10;99.90;;;;;;5034221;28;20275;-53
2021/04/15 00:07:02;;;;;;;6.73;1.80;;;6.20;99.90;;;;;;5030431;28;20672;-53
2021/04/15 00:09:28;;;;;;;3.17;1.33;;;6.30;99.90;;;;;;5029002;28;20200;-52
2021/04/15 00:11:54;;;;;;;2.70;1.30;;;6.40;99.90;;;;;;5030450;28;20222;-53
2021/04/15 00:14:22;;;;;;;3.97;1.77;;;6.30;99.90;;;;;;5031049;28;20291;-52
2021/04/15 00:16:49;;;;;;;4.50;1.33;;;6.30;99.90;;;;;;5028272;28;20190;-53
2021/04/15 00:19:18;;;;;;;1.43;1.30;;;6.30;99.90;;;;;;5032188;28;20597;-53
2021/04/15 00:21:48;;;;;;;3.73;1.40;;;6.20;99.90;;;;;;5032668;28;20304;-53
2021/04/15 00:24:16;;;;;;;6.70;1.60;;;6.20;99.90;;;;;;5037374;28;20223;-54
2021/04/15 00:26:42;;;;;;;2.87;1.87;;;6.20;99.90;;;;;;5033973;28;20255;-53
2021/04/15 00:29:09;;;;;;;5.43;1.33;;;6.30;99.90;;;;;;5036099;28;20251;-53
2021/04/15 00:31:36;;;;;;;3.57;1.60;;;6.30;99.90;;;;;;5035240;28;20309;-53
2021/04/15 00:34:02;;;;;;;2.50;1.50;;;6.30;99.90;;;;;;5037255;28;20194;-53
2021/04/15 00:36:29;;;;;;;3.50;1.33;;;6.40;99.90;;;;;;5032179;28;20296;-53
2021/04/15 00:38:56;;;;;;;2.10;1.63;;;6.20;99.90;;;;;;5041543;28;20605;-52
2021/04/15 00:41:23;;;;;;;2.67;1.50;;;6.40;99.90;;;;;;5037652;28;20193;-53
2021/04/15 00:43:49;;;;;;;1.77;1.33;;;6.30;99.90;;;;;;5032457;28;20628;-53
2021/04/15 00:46:54;;;;;;;5.03;1.90;;;6.30;99.90;;;;;;5035082;28;20205;-52
2021/04/15 00:49:28;;;;;;;1.47;1.27;;;6.30;99.90;;;;;;5032683;28;20251;-53
2021/04/15 00:51:59;;;;;;;3.07;1.67;;;6.20;99.90;;;;;;5029683;28;20355;-52
2021/04/15 00:54:35;;;;;;;4.40;2.07;;;6.40;99.90;;;;;;5036735;28;20215;-52
2021/04/15 00:57:04;;;;;;;7.60;1.90;;;6.40;99.90;;;;;;5040422;28;20197;-52
2021/04/15 00:59:31;;;;;;;1.70;1.23;;;6.40;99.90;;;;;;5042496;28;20220;-52
2021/04/15 01:01:58;;;;;;;5.37;2.03;;;6.30;99.90;;;;;;5029845;28;20204;-53
2021/04/15 01:04:25;;;;;;;2.20;1.60;;;6.40;99.90;;;;;;5038110;28;20241;-53
2021/04/15 01:06:52;;;;;;;3.10;2.00;;;6.40;99.90;;;;;;5034981;28;20211;-53
2021/04/15 01:09:19;;;;;;;5.47;1.80;;;6.30;99.90;;;;;;5033504;28;20379;-54
2021/04/15 01:12:00;;;;;;;6.83;2.10;;;6.40;99.90;;;;;;5033025;28;20224;-53
2021/04/15 01:15:11;;;;;;;2.60;2.00;;;6.30;99.90;;;;;;5034465;28;20323;-53
2021/04/15 01:17:59;;;;;;;2.40;1.70;;;6.30;99.90;;;;;;5035134;28;20287;-53
2021/04/15 01:20:53;;;;;;;2.80;1.80;;;6.30;99.90;;;;;;5035903;28;20692;-53
2021/04/15 01:23:39;;;;;;;5.27;2.50;;;6.20;99.90;;;;;;5028843;28;20236;-53
2021/04/15 01:26:39;;;;;;;5.37;2.10;;;6.20;99.90;;;;;;5038637;28;20254;-53
2021/04/15 01:29:13;;;;;;;2.23;1.70;;;6.20;99.90;;;;;;5031792;28;20320;-53
2021/04/15 01:31:42;;;;;;;5.97;1.53;;;6.10;99.90;;;;;;5040511;28;20594;-53
2021/04/15 01:34:34;;;;;;;3.27;1.87;;;6.20;99.90;;;;;;5030312;28;20244;-54
2021/04/15 01:37:15;;;;;;;2.63;1.50;;;6.30;99.90;;;;;;5033507;28;20659;-54
2021/04/15 01:39:57;;;;;;;3.93;2.00;;;6.20;99.90;;;;;;5037579;28;20618;-54
2021/04/15 01:42:37;;;;;;;3.63;2.17;;;6.00;99.90;;;;;;5033876;28;20229;-55
2021/04/15 01:45:09;;;;;;;6.17;1.83;;;5.90;99.90;;;;;;5033282;28;20331;-52
2021/04/15 01:47:53;;;;;;;4.33;2.07;;;6.00;99.90;;;;;;5040289;28;20208;-53
2021/04/15 01:50:25;;;;;;;6.20;2.50;;;6.20;99.90;;;;;;5036642;28;20192;-53
2021/04/15 01:52:57;;;;;;;4.13;1.70;;;6.20;99.90;;;;;;5033405;28;20285;-52
2021/04/15 01:55:32;;;;;;;3.07;1.83;;;6.20;99.90;;;;;;5032709;28;20279;-53
2021/04/15 01:58:16;;;;;;;4.73;1.70;;;6.10;99.90;;;;;;5034587;28;20207;-53
2021/04/15 02:00:45;;;;;;;4.80;1.67;;;6.20;99.90;;;;;;5039697;28;20216;-53
2021/04/15 02:03:18;;;;;;;4.53;1.90;;;6.20;99.90;;;;;;5037356;28;20211;-54
2021/04/15 02:05:46;;;;;;;5.73;2.10;;;6.20;99.90;;;;;;5036925;28;20279;-53
2021/04/15 02:08:17;;;;;;;2.47;1.97;;;6.20;99.90;;;;;;5036764;28;20500;-53
2021/04/15 02:11:01;;;;;;;4.43;1.93;;;6.20;99.90;;;;;;5032173;28;20222;-54
2021/04/15 02:13:31;;;;;;;3.97;1.87;;;6.10;99.90;;;;;;5033391;28;20224;-53
2021/04/15 02:16:03;;;;;;;4.43;2.10;;;6.20;99.90;;;;;;5034773;28;20622;-54
2021/04/15 02:18:41;;;;;;;2.63;2.23;;;6.00;99.90;;;;;;5030635;28;20670;-54
2021/04/15 02:21:47;;;;;;;2.30;1.77;;;6.00;99.90;;;;;;5025021;28;20209;-53
2021/04/15 02:24:34;;;;;;;2.57;2.00;;;6.10;99.90;;;;;;5029198;28;20626;-54
2021/04/15 02:27:12;;;;;;;1.60;1.37;;;6.20;99.90;;;;;;5035896;28;20314;-54
2021/04/15 02:29:43;;;;;;;4.17;1.40;;;6.20;99.90;;;;;;5025690;28;20244;-53
2021/04/15 02:32:33;;;;;;;3.03;1.90;;;6.30;99.90;;;;;;5030528;28;20346;-53
2021/04/15 02:35:26;;;;;;;5.97;1.50;;;6.30;99.90;;;;;;5030395;28;20657;-53
2021/04/15 02:37:55;;;;;;;3.90;1.53;;;6.20;99.90;;;;;;5028951;28;20209;-52
2021/04/15 02:40:29;;;;;;;1.67;1.50;;;6.00;99.90;;;;;;5033490;28;20200;-52
2021/04/15 02:42:59;;;;;;;2.10;1.20;;;6.00;99.90;;;;;;5031860;28;20251;-53
2021/04/15 02:45:40;;;;;;;2.90;1.40;;;6.10;99.90;;;;;;5034584;28;20201;-53
2021/04/15 02:48:19;;;;;;;1.67;1.13;;;5.70;99.90;;;;;;5032934;28;20272;-53
2021/04/15 02:50:46;;;;;;;3.17;1.07;;;5.80;99.90;;;;;;5036790;28;20287;-53
2021/04/15 02:53:17;;;;;;;1.33;1.23;;;5.70;99.90;;;;;;5040625;28;20702;-53
2021/04/15 02:55:55;;;;;;;1.77;1.10;;;5.60;99.90;;;;;;5028310;28;20201;-54
2021/04/15 02:58:32;;;;;;;1.30;1.20;;;5.70;99.90;;;;;;5035595;28;20196;-53
2021/04/15 03:01:00;;;;;;;2.63;1.10;;;5.80;99.90;;;;;;5037780;28;20277;-53
2021/04/15 03:03:33;;;;;;;5.30;2.13;;;5.90;99.90;;;;;;5031364;28;20195;-53
2021/04/15 03:06:13;;;;;;;1.93;1.20;;;6.00;99.90;;;;;;5034809;28;20663;-53
2021/04/15 03:08:41;;;;;;;1.70;1.50;;;6.00;99.90;;;;;;5029437;28;20342;-53
2021/04/15 03:11:14;;;;;;;2.90;1.10;;;6.00;99.90;;;;;;5029415;28;20282;-53
2021/04/15 03:13:45;;;;;;;4.10;1.47;;;6.00;99.90;;;;;;5031422;28;20197;-53
2021/04/15 03:16:14;;;;;;;2.97;1.10;;;6.10;99.90;;;;;;5029446;28;20255;-53
2021/04/15 03:18:54;;;;;;;1.47;1.00;;;6.10;99.90;;;;;;5029373;28;20253;-53
2021/04/15 03:21:29;;;;;;;4.60;1.20;;;6.00;99.90;;;;;;5031824;28;20574;-54
2021/04/15 03:24:09;;;;;;;1.50;1.40;;;6.10;99.90;;;;;;5030565;28;20204;-53
2021/04/15 03:27:06;;;;;;;1.67;1.40;;;6.10;99.90;;;;;;5028801;28;20300;-53
2021/04/15 03:29:45;;;;;;;1.60;1.17;;;6.10;99.90;;;;;;5033443;28;20725;-53
2021/04/15 03:32:33;;;;;;;2.07;1.10;;;6.10;99.90;;;;;;5036511;28;20669;-54
2021/04/15 03:35:08;;;;;;;2.83;1.30;;;6.30;99.90;;;;;;5032851;28;20470;-53
2021/04/15 03:37:44;;;;;;;1.93;1.03;;;6.40;99.90;;;;;;5026658;28;20250;-53
2021/04/15 03:40:13;;;;;;;1.77;0.80;;;6.40;99.90;;;;;;5027557;28;20204;-53
2021/04/15 03:42:51;;;;;;;1.87;0.90;;;6.40;99.90;;;;;;5038167;28;20276;-53
2021/04/15 03:45:33;;;;;;;4.00;1.30;;;6.50;99.90;;;;;;5034013;28;20534;-53
2021/04/15 03:48:04;;;;;;;2.37;1.10;;;6.40;99.90;;;;;;5034583;28;20286;-53
2021/04/15 03:50:56;;;;;;;1.13;0.93;;;6.50;99.90;;;;;;5027634;28;20264;-54
2021/04/15 03:53:34;;;;;;;0.93;0.83;;;6.40;99.90;;;;;;5026594;28;20645;-54
2021/04/15 03:56:05;;;;;;;1.70;0.90;;;6.50;99.90;;;;;;5028567;28;21618;-53
2021/04/15 03:58:38;;;;;;;1.37;0.70;;;6.40;99.90;;;;;;5034675;28;20294;-53
2021/04/15 04:01:14;;;;;;;2.33;1.00;;;6.50;99.90;;;;;;5031503;28;20399;-53
2021/04/15 04:03:42;;;;;;;0.97;0.90;;;6.40;99.90;;;;;;5028844;28;20204;-53
2021/04/15 04:06:31;;;;;;;0.83;0.70;;;6.50;99.90;;;;;;5032191;28;20281;-53
2021/04/15 04:09:05;;;;;;;2.07;0.90;;;6.30;99.90;;;;;;5034015;28;20223;-53
2021/04/15 04:11:34;;;;;;;1.80;1.20;;;6.30;99.90;;;;;;5037589;28;20187;-53
2021/04/15 04:14:05;;;;;;;4.40;1.23;;;6.40;99.90;;;;;;5028151;28;20269;-53
2021/04/15 04:16:37;;;;;;;1.10;0.90;;;6.30;99.90;;;;;;5028451;28;20200;-54
2021/04/15 04:19:21;;;;;;;1.43;0.90;;;6.20;99.90;;;;;;5035790;28;20207;-53
2021/04/15 04:22:11;;;;;;;3.37;0.93;;;6.30;99.90;;;;;;5035483;28;20196;-53
2021/04/15 04:25:05;;;;;;;1.13;0.90;;;6.20;99.90;;;;;;5031924;28;20199;-53
2021/04/15 04:27:36;;;;;;;1.67;0.97;;;6.20;99.90;;;;;;5032480;28;20289;-54
2021/04/15 04:30:13;;;;;;;1.70;1.30;;;6.30;99.90;;;;;;5032835;28;20343;-53
2021/04/15 04:32:41;;;;;;;3.37;1.23;;;6.20;99.90;;;;;;5036276;28;20187;-54
2021/04/15 04:35:15;;;;;;;1.57;1.23;;;6.20;99.90;;;;;;5034894;28;20204;-54
2021/04/15 04:37:45;;;;;;;3.67;1.83;;;6.20;99.90;;;;;;5031289;28;20199;-54
2021/04/15 04:40:31;;;;;;;2.73;1.70;;;6.30;99.90;;;;;;5038026;28;20200;-53
2021/04/15 04:43:00;;;;;;;1.70;1.50;;;5.90;99.90;;;;;;5029481;28;20222;-53
2021/04/15 04:45:28;;;;;;;2.67;1.57;;;5.90;99.90;;;;;;5034492;28;20312;-53
2021/04/15 04:48:11;;;;;;;4.70;1.97;;;5.70;99.90;;;;;;5029955;28;20224;-53
2021/04/15 04:50:54;;;;;;;3.13;1.87;;;5.80;99.90;;;;;;5028523;28;20196;-54
2021/04/15 04:53:31;;;;;;;6.40;2.03;;;5.80;99.90;;;;;;5030100;28;20193;-53
2021/04/15 04:56:17;;;;;;;2.97;1.97;;;5.60;99.90;;;;;;5033839;28;20245;-53
2021/04/15 04:58:52;;;;;;;5.13;2.13;;;5.70;99.90;;;;;;5030566;28;20594;-54
2021/04/15 05:01:18;;;;;;;1.97;1.70;;;5.70;99.90;;;;;;5039132;28;20689;-54
2021/04/15 05:03:45;;;;;;;3.27;1.77;;;5.70;99.90;;;;;;5029251;28;20230;-54
2021/04/15 05:06:24;;;;;;;2.47;2.03;;;5.70;99.90;;;;;;5033983;28;20627;-54
2021/04/15 05:09:02;;;;;;;3.53;2.03;;;5.50;99.90;;;;;;5032196;28;20690;-54
2021/04/15 05:11:37;;;;;;;5.50;2.27;;;5.50;99.90;;;;;;5031574;28;20204;-54
2021/04/15 05:14:05;;;;;;;4.20;2.90;;;5.00;99.90;;;;;;5032079;28;20520;-53
2021/04/15 05:16:40;;;;;;;6.43;3.17;;;4.80;99.90;;;;;;5031596;28;20220;-54
2021/04/15 05:19:07;;;;;;;6.43;3.30;;;4.70;99.90;;;;;;5034534;28;20266;-54
2021/04/15 05:21:35;;;;;;;5.70;2.73;;;4.50;99.90;;;;;;5027500;28;21045;-53
2021/04/15 05:24:19;;;;;;;5.13;2.93;;;4.60;99.90;;;;;;5036453;28;20201;-53
2021/04/15 05:26:48;;;;;;;5.50;2.93;;;4.80;99.90;;;;;;5030520;28;20232;-54
2021/04/15 05:29:21;;;;;;;4.07;2.93;;;5.00;99.90;;;;;;5033309;28;20285;-53
2021/04/15 05:31:51;;;;;;;3.33;2.43;;;5.10;99.90;;;;;;5031664;28;20626;-53
2021/04/15 05:34:23;;;;;;;7.03;2.97;;;5.30;99.90;;;;;;5031879;28;20193;-54
2021/04/15 05:36:52;;;;;;;5.10;2.83;;;5.30;99.90;;;;;;5035763;28;20384;-53
2021/04/15 05:39:21;;;;;;;4.67;2.70;;;5.40;99.90;;;;;;5039818;28;20220;-52
2021/04/15 05:41:58;;;;;;;5.33;3.20;;;5.50;99.90;;;;;;5039037;28;20698;-53
2021/04/15 05:44:33;;;;;;;5.83;3.07;;;5.50;99.90;;;;;;5030523;28;20307;-53
2021/04/15 05:47:04;;;;;;;4.90;3.20;;;5.60;99.90;;;;;;5038524;28;20203;-52
2021/04/15 05:49:36;;;;;;;4.83;2.90;;;5.60;99.90;;;;;;5032933;28;20228;-53
2021/04/15 05:52:21;;;;;;;5.63;3.33;;;5.50;99.90;;;;;;5039120;28;20200;-53
2021/04/15 05:54:49;;;;;;;3.97;3.30;;;5.20;99.90;;;;;;5031485;28;20278;-53
2021/04/15 05:57:19;;;;;;;5.53;2.93;;;5.30;99.90;;;;;;5039783;28;20214;-53
2021/04/15 06:00:09;;;;;;;4.83;3.27;;;5.40;99.90;;;;;;5034166;28;20312;-53
2021/04/15 06:02:41;;;;;;;4.07;3.03;;;5.80;99.90;;;;;;5029774;28;20454;-53
2021/04/15 06:05:33;;;;;;;4.90;3.30;;;5.50;99.90;;;;;;5035058;28;20197;-54
2021/04/15 06:08:07;;;;;;;3.47;2.83;;;5.50;99.90;;;;;;5035233;28;20224;-53
2021/04/15 06:10:36;;;;;;;3.73;2.87;;;5.70;99.90;;;;;;5033092;28;20238;-53
2021/04/15 06:13:24;;;;;;;7.70;3.10;;;6.00;99.90;;;;;;5031293;28;20201;-53
2021/04/15 06:15:58;;;;;;;5.00;3.20;;;6.00;99.90;;;;;;5030484;28;20200;-52
2021/04/15 06:19:03;;;;;;;6.17;3.00;;;6.00;99.90;;;;;;5033096;28;20223;-54
2021/04/15 06:21:39;;;;;;;5.83;3.30;;;6.20;99.90;;;;;;5033728;28;20211;-52
2021/04/15 06:24:11;;;;;;;4.70;3.50;;;6.20;99.90;;;;;;5030588;28;20200;-53
2021/04/15 06:26:58;;;;;;;5.87;3.53;;;6.20;99.90;;;;;;5034156;28;20238;-53
2021/04/15 06:29:40;;;;;;;4.93;3.80;;;6.30;99.90;;;;;;5035656;28;20241;-52
2021/04/15 06:32:11;;;;;;;6.97;3.23;;;6.30;99.90;;;;;;5029780;28;20668;-54
2021/04/15 06:34:38;;;;;;;10.17;4.23;;;6.40;99.90;;;;;;5034255;28;20577;-53
2021/04/15 06:37:14;;;;;;;11.20;3.30;;;6.40;99.90;;;;;;5032598;28;20289;-53
2021/04/15 06:39:48;;;;;;;5.87;3.53;;;6.40;99.90;;;;;;5025681;28;20269;-53
2021/04/15 06:42:35;;;;;;;7.10;3.70;;;6.60;99.90;;;;;;5035019;28;20219;-53
2021/04/15 06:45:28;;;;;;;6.13;4.43;;;6.80;99.90;;;;;;5027880;28;20215;-54
2021/04/15 06:48:19;;;;;;;4.93;3.33;;;6.90;99.90;;;;;;5036451;28;20200;-53
2021/04/15 06:51:24;;;;;;;6.23;4.00;;;6.90;99.90;;;;;;5029076;28;20254;-53
2021/04/15 06:54:01;;;;;;;5.43;3.83;;;7.10;99.90;;;;;;5029735;28;20196;-53
2021/04/15 06:56:51;;;;;;;7.57;3.73;;;7.10;99.90;;;;;;5032655;28;20198;-53
2021/04/15 06:59:38;;;;;;;6.13;4.00;;;6.80;99.90;;;;;;5027841;28;20227;-53
2021/04/15 07:02:17;;;;;;;6.37;4.17;;;6.90;99.90;;;;;;5033333;28;20253;-53
2021/04/15 07:05:00;;;;;;;5.47;3.97;;;6.70;99.90;;;;;;5026865;28;20203;-53
2021/04/15 07:07:34;;;;;;;7.87;3.77;;;6.70;99.90;;;;;;5028160;28;20202;-52
2021/04/15 07:10:28;;;;;;;6.07;3.90;;;6.60;99.90;;;;;;5027068;28;20319;-53
2021/04/15 07:13:10;;;;;;;7.90;4.50;;;6.90;99.90;;;;;;5028225;28;20201;-54
2021/04/15 07:15:42;;;;;;;8.00;3.57;;;7.10;99.90;;;;;;5032046;28;20211;-54
2021/04/15 07:18:23;;;;;;;6.40;3.27;;;6.90;99.90;;;;;;5029592;28;20595;-55
2021/04/15 07:21:24;;;;;;;5.30;3.37;;;7.20;99.90;;;;;;5029305;28;20243;-53
2021/04/15 07:24:13;;;;;;;8.17;3.63;;;7.20;99.90;;;;;;5035032;28;20766;-53
2021/04/15 07:27:27;;;;;;;4.17;2.93;;;7.20;99.90;;;;;;5027988;28;20336;-54
2021/04/15 07:30:12;;;;;;;9.00;3.20;;;7.10;99.90;;;;;;5038201;28;20611;-52
2021/04/15 07:33:17;;;;;;;5.40;2.73;;;7.30;99.90;;;;;;5034823;28;20201;-53
2021/04/15 07:36:25;;;;;;;8.90;4.00;;;7.40;99.90;;;;;;5035288;28;20227;-54
2021/04/15 07:39:10;;;;;;;6.87;3.30;;;7.30;99.90;;;;;;5029803;28;20259;-53
2021/04/15 07:42:02;;;;;;;5.60;3.67;;;7.40;99.90;;;;;;5029318;28;20209;-53
2021/04/15 07:44:47;;;;;;;5.67;3.60;;;7.50;99.90;;;;;;5027335;28;20199;-53
2021/04/15 07:47:29;;;;;;;7.43;4.00;;;7.60;99.90;;;;;;5036580;28;20539;-53
2021/04/15 07:50:20;;;;;;;7.17;3.67;;;7.70;99.90;;;;;;5029439;28;20233;-53
2021/04/15 07:53:04;;;;;;;6.87;3.03;;;7.90;99.90;;;;;;5027349;28;20645;-53
2021/04/15 07:55:37;;;;;;;6.37;3.87;;;7.90;99.90;;;;;;5029866;28;20207;-53
2021/04/15 07:58:36;;;;;;;5.37;3.27;;;8.00;99.90;;;;;;5031461;28;20208;-53
2021/04/15 08:01:24;;;;;;;5.10;2.97;;;8.00;99.90;;;;;;5030209;28;20204;-53
2021/04/15 08:04:08;;;;;;;5.50;2.70;;;8.30;99.90;;;;;;5033071;28;20195;-53
2021/04/15 08:07:04;;;;;;;4.60;2.30;;;8.10;99.90;;;;;;5029516;28;20303;-55
2021/04/15 08:09:45;;;;;;;4.43;2.50;;;8.30;99.90;;;;;;5028109;28;20212;-53
2021/04/15 08:12:44;;;;;;;4.00;2.73;;;7.90;99.90;;;;;;5032855;28;20204;-53
2021/04/15 08:15:39;;;;;;;4.67;2.90;;;7.80;99.90;;;;;;5033283;28;20607;-54
2021/04/15 08:18:16;;;;;;;5.03;2.00;;;8.10;99.90;;;;;;5030480;28;20220;-53
2021/04/15 08:21:01;;;;;;;6.03;1.87;;;8.00;99.90;;;;;;5031386;28;20695;-53
2021/04/15 08:23:48;;;;;;;4.57;1.77;;;8.00;99.90;;;;;;5034645;28;20645;-52
2021/04/15 08:26:52;;;;;;;4.83;2.20;;;7.90;99.90;;;;;;5028756;28;20251;-53
2021/04/15 08:29:46;;;;;;;4.00;2.20;;;7.90;99.90;;;;;;5024951;28;20567;-53
2021/04/15 08:32:29;;;;;;;3.37;2.17;;;8.10;99.90;;;;;;5035090;28;20336;-52
2021/04/15 08:35:03;;;;;;;2.67;2.00;;;8.10;99.90;;;;;;5028704;28;20586;-53
2021/04/15 08:38:04;;;;;;;5.70;2.30;;;8.00;99.90;;;;;;5031024;28;20194;-53
2021/04/15 08:40:46;;;;;;;2.97;1.77;;;7.80;99.90;;;;;;5034883;28;20327;-54
2021/04/15 08:43:41;;;;;;;4.00;2.27;;;7.90;99.90;;;;;;5029716;28;20698;-53
2021/04/15 08:46:10;;;;;;;2.70;1.63;;;7.90;99.90;;;;;;5036741;28;20629;-53
2021/04/15 08:49:00;;;;;;;3.67;1.80;;;8.10;99.90;;;;;;5034219;28;20236;-53
2021/04/15 08:52:34;;;;;;;3.07;1.37;;;8.20;99.90;;;;;;5037420;28;20194;-53
2021/04/15 08:55:22;;;;;;;2.17;1.60;;;8.20;99.90;;;;;;5033173;28;20201;-53
2021/04/15 08:57:57;;;;;;;4.57;1.70;;;8.20;99.90;;;;;;5040973;28;20259;-53
2021/04/15 09:01:02;;;;;;;2.40;1.37;;;8.40;99.90;;;;;;5030857;28;20200;-53
2021/04/15 09:03:44;;;;;;;7.23;1.50;;;8.40;99.90;;;;;;5034388;28;20597;-53
2021/04/15 09:06:30;;;;;;;3.77;1.60;;;8.40;99.90;;;;;;5039105;28;20198;-53
2021/04/15 09:09:06;;;;;;;3.80;1.80;;;8.30;99.90;;;;;;5035971;28;20282;-53
2021/04/15 09:11:41;;;;;;;3.00;1.33;;;8.20;99.90;;;;;;5037194;28;20231;-53
2021/04/15 09:14:35;;;;;;;5.23;1.47;;;8.30;99.90;;;;;;5036655;28;20755;-53
2021/04/15 09:17:14;;;;;;;3.17;1.57;;;8.20;99.90;;;;;;5037388;28;20204;-53
2021/04/15 09:20:04;;;;;;;3.40;1.77;;;8.20;99.90;;;;;;5036914;28;20202;-54
2021/04/15 09:22:39;;;;;;;3.40;2.47;;;8.20;99.90;;;;;;5038893;28;20668;-53
2021/04/15 09:25:08;;;;;;;2.30;1.63;;;8.00;99.90;;;;;;5035905;28;20636;-54
2021/04/15 09:27:50;;;;;;;3.13;1.80;;;8.30;99.90;;;;;;5029578;28;20266;-53
2021/04/15 09:30:39;;;;;;;4.73;2.00;;;8.60;99.90;;;;;;5034549;28;20258;-53
2021/04/15 09:33:24;;;;;;;5.40;1.90;;;9.00;99.90;;;;;;5037974;28;20795;-53
2021/04/15 09:36:05;;;;;;;4.60;1.50;;;9.10;99.90;;;;;;5035721;28;20618;-53
2021/04/15 09:39:09;;;;;;;2.83;1.93;;;8.80;99.90;;;;;;5035148;28;20308;-53
2021/04/15 09:42:11;;;;;;;7.70;1.60;;;9.00;99.90;;;;;;5039529;28;20303;-54
2021/04/15 09:44:59;;;;;;;4.13;1.60;;;8.90;99.90;;;;;;5035375;28;20258;-53
2021/04/15 09:47:39;;;;;;;3.07;1.63;;;8.50;99.90;;;;;;5033449;28;20272;-53
2021/04/15 09:50:06;;;;;;;3.17;1.70;;;8.10;99.90;;;;;;5038439;28;20422;-53
2021/04/15 09:53:07;;;;;;;3.77;1.30;;;8.70;99.90;;;;;;5035323;28;20954;-53
2021/04/15 09:56:03;;;;;;;5.53;1.40;;;9.40;99.90;;;;;;5034196;28;20280;-53
2021/04/15 09:58:55;;;;;;;3.97;1.73;;;10.10;99.70;;;;;;5031592;28;20255;-53
2021/04/15 10:01:32;;;;;;;2.90;1.40;;;10.40;98.40;;;;;;5031044;28;20244;-53
2021/04/15 10:04:27;;;;;;;7.57;1.80;;;10.10;92.00;;;;;;5035447;28;20326;-54
2021/04/15 10:07:12;;;;;;;1.90;1.17;;;9.70;94.80;;;;;;5030996;28;20277;-54
2021/04/15 10:09:44;;;;;;;4.30;1.43;;;9.50;95.60;;;;;;5031600;28;20376;-54
2021/04/15 10:12:36;;;;;;;2.40;1.50;;;9.40;97.80;;;;;;5033264;28;20634;-53
2021/04/15 10:15:07;;;;;;;4.07;1.60;;;9.50;97.50;;;;;;5028110;28;20195;-53
2021/04/15 10:17:48;;;;;;;2.60;1.50;;;9.50;99.50;;;;;;5032111;28;20254;-53
2021/04/15 10:20:29;;;;;;;2.33;1.60;;;9.60;99.60;;;;;;5031401;28;20213;-53
2021/04/15 10:23:40;;;;;;;3.50;1.37;;;9.60;97.50;;;;;;5032721;28;20267;-53
2021/04/15 10:26:18;;;;;;;3.90;1.50;;;9.50;96.20;;;;;;5042019;28;20215;-53
2021/04/15 10:29:28;;;;;;;2.37;1.80;;;9.30;99.50;;;;;;5035428;28;20226;-54
2021/04/15 10:32:26;;;;;;;4.63;1.60;;;9.00;99.90;;;;;;5034511;28;20251;-53
2021/04/15 10:35:05;;;;;;;2.97;1.20;;;8.90;99.90;;;;;;5034697;28;20290;-52
2021/04/15 10:37:59;;;;;;;2.23;1.40;;;8.90;99.90;;;;;;5036119;28;20224;-53
2021/04/15 10:40:42;;;;;;;1.57;1.10;;;9.10;99.20;;;;;;5037306;28;20200;-52
2021/04/15 10:43:25;;;;;;;1.20;1.10;;;9.30;99.30;;;;;;5034910;28;20266;-53
2021/04/15 10:46:20;;;;;;;1.00;0.73;;;9.20;91.20;;;;;;5029777;28;20207;-53
2021/04/15 10:48:55;;;;;;;1.50;1.20;;;9.10;82.20;;;;;;5028961;28;20986;-53
2021/04/15 10:51:33;;;;;;;4.47;1.50;;;9.00;93.00;;;;;;5029442;28;20926;-54
2021/04/15 10:54:36;;;;;;;2.03;1.10;;;9.00;97.90;;;;;;5028907;28;20193;-53
2021/04/15 10:57:28;;;;;;;2.47;1.43;;;8.90;90.90;;;;;;5027259;28;20313;-53
2021/04/15 10:59:55;;;;;;;1.53;1.17;;;8.90;87.70;;;;;;5026922;28;20204;-55
2021/04/15 11:02:21;;;;;;;2.80;1.20;;;9.00;88.70;;;;;;5030387;28;20733;-53
2021/04/15 11:04:48;;;;;;;4.13;1.93;;;9.10;91.30;;;;;;5026893;28;20219;-53
2021/04/15 11:07:26;;;;;;;1.63;1.30;;;9.40;88.50;;;;;;5027864;28;20195;-53
2021/04/15 11:09:55;;;;;;;3.80;1.43;;;9.40;90.80;;;;;;5024950;28;20691;-54
2021/04/15 11:12:29;;;;;;;5.37;1.63;;;9.60;90.50;;;;;;5038272;28;20256;-53
2021/04/15 11:15:09;;;;;;;6.90;1.50;;;9.40;91.60;;;;;;5029483;28;20298;-55
2021/04/15 11:17:44;;;;;;;2.23;1.67;;;9.50;93.00;;;;;;5031884;28;20201;-53
2021/04/15 11:20:20;;;;;;;8.37;1.80;;;9.10;94.80;;;;;;5032364;28;20196;-53
2021/04/15 11:22:58;;;;;;;2.47;1.40;;;9.10;96.70;;;;;;5033531;28;20204;-53
2021/04/15 11:25:33;;;;;;;2.60;1.40;;;9.20;94.60;;;;;;5033415;28;20220;-55
2021/04/15 11:28:10;;;;;;;1.67;1.23;;;9.20;93.90;;;;;;5033900;28;20573;-53
2021/04/15 11:30:47;;;;;;;1.67;1.53;;;9.10;96.20;;;;;;5029036;28;20213;-53
2021/04/15 11:33:41;;;;;;;3.67;1.63;;;9.20;93.40;;;;;;5030641;28;20789;-53
2021/04/15 11:36:26;;;;;;;2.13;1.33;;;9.30;92.10;;;;;;5036206;28;20227;-53
2021/04/15 11:39:05;;;;;;;1.63;1.20;;;9.20;88.30;;;;;;5032547;28;20206;-53
2021/04/15 11:41:46;;;;;;;1.40;1.27;;;9.60;86.60;;;;;;5031621;28;20234;-53
2021/04/15 11:44:24;;;;;;;1.20;1.07;;;9.90;85.00;;;;;;5030226;28;20212;-53
2021/04/15 11:46:51;;;;;;;2.03;1.40;;;10.00;80.70;;;;;;5028985;28;20235;-54
2021/04/15 11:49:55;;;;;;;3.97;1.23;;;10.10;75.10;;;;;;5032834;28;20236;-53
2021/04/15 11:52:30;;;;;;;2.93;1.60;;;10.30;66.10;;;;;;5031796;28;20711;-54
2021/04/15 11:54:57;;;;;;;2.60;1.40;;;10.30;68.10;;;;;;5038180;28;20203;-53
2021/04/15 11:57:38;;;;;;;7.87;1.60;;;10.20;68.70;;;;;;5034623;28;20214;-54
2021/04/15 12:00:04;;;;;;;1.43;1.27;;;10.30;68.10;;;;;;5033458;28;20702;-53
2021/04/15 12:02:38;;;;;;;2.47;1.27;;;10.40;69.40;;;;;;5028113;28;20230;-52
2021/04/15 12:05:30;;;;;;;2.80;1.40;;;10.60;67.00;;;;;;5036871;28;20216;-53
2021/04/15 12:08:02;;;;;;;3.10;1.30;;;10.20;72.10;;;;;;5031471;28;20658;-53
2021/04/15 12:10:39;;;;;;;1.53;1.37;;;10.30;72.90;;;;;;5032490;28;20213;-53
2021/04/15 12:13:36;;;;;;;1.97;1.27;;;10.90;63.40;;;;;;5030723;28;20231;-53
2021/04/15 12:16:40;;;;;;;1.13;1.03;;;11.40;55.40;;;;;;5035197;28;20234;-54
2021/04/15 12:19:14;;;;;;;2.50;1.30;;;11.00;58.10;;;;;;5033481;28;20212;-54
2021/04/15 12:22:02;;;;;;;3.53;1.23;;;10.70;62.10;;;;;;5035241;28;20223;-53
2021/04/15 12:24:42;;;;;;;2.23;1.70;;;10.60;60.60;;;;;;5037178;28;20493;-52
2021/04/15 12:27:23;;;;;;;1.33;1.03;;;10.60;59.50;;;;;;5031487;28;20346;-54
2021/04/15 12:29:58;;;;;;;1.50;1.27;;;10.60;57.00;;;;;;5028542;28;20313;-53
2021/04/15 12:32:57;;;;;;;1.33;1.20;;;11.10;56.30;;;;;;5033816;28;20722;-53
2021/04/15 12:35:39;;;;;;;4.03;1.60;;;10.90;52.40;;;;;;5029511;28;20320;-54
2021/04/15 12:38:19;;;;;;;5.93;1.67;;;10.80;59.60;;;;;;5041011;28;20251;-53
2021/04/15 12:40:49;;;;;;;2.27;1.50;;;11.00;57.40;;;;;;5037171;28;20228;-52
2021/04/15 12:43:24;;;;;;;2.17;1.40;;;10.80;55.80;;;;;;5032156;28;20249;-53
2021/04/15 12:46:01;;;;;;;1.50;1.20;;;10.50;56.30;;;;;;5042209;28;20202;-53
2021/04/15 12:48:48;;;;;;;3.27;1.40;;;10.30;55.70;;;;;;5036344;28;20629;-53
2021/04/15 12:51:22;;;;;;;1.80;1.20;;;10.60;56.20;;;;;;5030080;28;20291;-54
2021/04/15 12:53:50;;;;;;;1.53;1.17;;;10.90;54.60;;;;;;5034367;28;20300;-52
2021/04/15 12:56:21;;;;;;;1.93;1.40;;;11.00;57.40;;;;;;5032377;28;20200;-53
2021/04/15 12:58:48;;;;;;;2.00;1.20;;;11.30;52.20;;;;;;5032597;28;20265;-53
2021/04/15 13:01:15;;;;;;;1.97;1.20;;;11.20;51.80;;;;;;5039352;28;20202;-53
2021/04/15 13:03:45;;;;;;;2.10;1.13;;;11.70;51.20;;;;;;5035027;28;20224;-53
2021/04/15 13:06:17;;;;;;;1.23;1.10;;;11.50;43.60;;;;;;5033833;28;20208;-53
2021/04/15 13:08:54;;;;;;;3.20;1.47;;;12.10;44.60;;;;;;5033468;28;20211;-53
2021/04/15 13:11:21;;;;;;;1.27;1.17;;;12.00;42.50;;;;;;5030369;28;20205;-53
2021/04/15 13:13:57;;;;;;;1.43;1.13;;;12.80;44.70;;;;;;5031683;28;20988;-53
2021/04/15 13:16:32;;;;;;;1.27;1.00;;;13.50;37.40;;;;;;5030100;28;20207;-52
2021/04/15 13:19:19;;;;;;;2.00;1.10;;;13.10;52.80;;;;;;5029059;28;20202;-52
2021/04/15 13:22:12;;;;;;;1.47;1.27;;;13.50;33.20;;;;;;5028569;28;20204;-52
2021/04/15 13:24:47;;;;;;;2.80;1.10;;;12.70;35.60;;;;;;5034671;28;20297;-53
2021/04/15 13:27:33;;;;;;;2.83;1.03;;;12.00;37.20;;;;;;5030509;28;20233;-53
2021/04/15 13:30:23;;;;;;;2.60;1.27;;;11.90;39.60;;;;;;5026162;28;20227;-52
2021/04/15 13:33:18;;;;;;;1.53;1.20;;;11.90;38.40;;;;;;5032836;28;20202;-52
2021/04/15 13:36:00;;;;;;;1.43;1.13;;;11.70;42.80;;;;;;5032135;28;20275;-51
2021/04/15 13:38:29;;;;;;;2.30;1.30;;;11.50;39.90;;;;;;5032707;28;20220;-51
2021/04/15 13:41:02;;;;;;;2.73;1.23;;;11.30;42.40;;;;;;5033232;28;20304;-53
2021/04/15 13:43:47;;;;;;;1.27;1.10;;;11.50;43.50;;;;;;5033503;28;20210;-51
2021/04/15 13:46:25;;;;;;;2.53;1.43;;;11.80;40.60;;;;;;5035536;28;20281;-51
2021/04/15 13:49:00;;;;;;;2.33;1.17;;;11.50;40.70;;;;;;5034258;28;20265;-52
2021/04/15 13:51:29;;;;;;;1.30;1.03;;;11.30;42.70;;;;;;5026833;28;20246;-52
2021/04/15 13:54:53;;;;;;;1.93;1.37;;;11.70;40.00;;;;;;5029447;28;20216;-52
2021/04/15 13:57:43;;;;;;;1.53;1.30;;;11.90;38.50;;;;;;5034227;28;20255;-53
2021/04/15 14:00:13;;;;;;;2.60;1.23;;;12.30;33.00;;;;;;5033545;28;20237;-53
2021/04/15 14:02:42;;;;;;;1.30;0.73;;;12.40;33.20;;;;;;5029020;28;20252;-51